createdAt,value
2019-03-12T00:02:46.719Z,57.2
2019-03-12T00:19:34.231Z,57.2
2019-03-12T00:36:21.611Z,56.8
2019-03-12T00:53:08.896Z,56.8
2019-03-12T01:09:56.127Z,56.8
2019-03-12T01:26:43.355Z,56.8
2019-03-12T01:43:30.455Z,56.4
2019-03-12T02:00:17.573Z,56.4
2019-03-12T02:17:04.661Z,56.0
2019-03-12T02:33:51.621Z,56.0
2019-03-12T02:50:38.524Z,56.0
2019-03-12T03:07:25.449Z,55.6
2019-03-12T03:24:12.305Z,55.6
2019-03-12T03:40:59.182Z,55.6
2019-03-12T03:57:45.968Z,55.6
2019-03-12T04:14:32.665Z,55.2
2019-03-12T04:31:19.217Z,54.4
2019-03-12T04:48:05.839Z,54.4
2019-03-12T05:04:52.286Z,54.4
2019-03-12T05:21:38.720Z,54.4
2019-03-12T05:38:25.258Z,54.4
2019-03-12T05:55:11.739Z,54.0
2019-03-12T06:11:58.325Z,54.0
2019-03-12T06:28:44.960Z,54.0
2019-03-12T06:45:31.572Z,53.6
2019-03-12T07:02:18.383Z,52.0
2019-03-12T07:19:04.683Z,53.2
2019-03-12T07:35:51.121Z,53.6
2019-03-12T07:52:37.716Z,53.6
2019-03-12T08:09:24.609Z,53.2
2019-03-12T08:26:10.486Z,53.2
2019-03-12T08:42:57.824Z,53.2
2019-03-12T08:59:45.156Z,52.8
2019-03-12T09:16:32.837Z,53.2
2019-03-12T09:33:19.917Z,53.6
2019-03-12T09:50:07.134Z,53.6
2019-03-12T10:06:54.795Z,53.6
2019-03-12T10:23:41.797Z,53.6
2019-03-12T10:40:29.333Z,53.2
2019-03-12T10:57:16.793Z,53.2
2019-03-12T11:14:04.460Z,53.2
2019-03-12T11:30:52.614Z,53.2
2019-03-12T11:47:40.254Z,52.8
2019-03-12T12:04:28.362Z,52.8
2019-03-12T12:21:16.753Z,52.8
2019-03-12T12:38:05.474Z,52.8
2019-03-12T12:54:53.889Z,52.8
2019-03-12T13:11:41.869Z,52.8
2019-03-12T13:28:30.207Z,52.8
2019-03-12T13:45:18.747Z,52.8
2019-03-12T14:02:07.452Z,52.8
2019-03-12T14:18:56.161Z,53.2
2019-03-12T14:35:51.524Z,53.2
2019-03-12T14:52:33.894Z,52.4
2019-03-12T15:09:22.857Z,52.8
2019-03-12T15:26:11.285Z,52.8
2019-03-12T15:42:59.814Z,52.8
2019-03-12T15:59:48.491Z,53.2
2019-03-12T16:16:37.150Z,52.8
2019-03-12T16:33:25.752Z,52.8
2019-03-12T16:50:14.369Z,52.8
2019-03-12T17:07:02.893Z,53.2
2019-03-12T17:23:51.564Z,53.2
2019-03-12T17:40:40.103Z,53.2
2019-03-12T17:57:28.465Z,53.2
2019-03-12T18:14:16.324Z,53.2
2019-03-12T18:31:03.980Z,53.2
2019-03-12T18:47:51.712Z,52.8
2019-03-12T19:04:39.315Z,52.8
2019-03-12T19:21:27.158Z,52.8
2019-03-12T19:38:14.951Z,52.8
2019-03-12T19:55:03.341Z,52.8
2019-03-12T20:11:50.514Z,52.8
2019-03-12T20:28:38.216Z,52.8
2019-03-12T20:45:25.940Z,52.8
2019-03-12T21:02:13.672Z,52.8
2019-03-12T21:19:01.213Z,52.8
2019-03-12T21:35:48.879Z,52.8
2019-03-12T21:52:36.541Z,52.8
2019-03-12T22:09:24.402Z,52.8
2019-03-12T22:26:12.012Z,52.8
2019-03-12T22:42:59.749Z,52.8
2019-03-12T22:59:47.445Z,52.8
2019-03-12T23:16:35.095Z,52.4
2019-03-12T23:33:22.803Z,52.4
2019-03-12T23:50:10.235Z,52.4
